sensor_id;sensor_type;location;lat;lon;timestamp;P1;durP1;ratioP1;P2;durP2;ratioP2
75441;SDS011;64019;48.312;14.226;2024-01-30T00:02:16;28.97;;;14.37;;
75441;SDS011;64019;48.312;14.226;2024-01-30T00:04:42;34.43;;;14.47;;
75441;SDS011;64019;48.312;14.226;2024-01-30T00:07:08;34.17;;;14.63;;
75441;SDS011;64019;48.312;14.226;2024-01-30T00:09:33;32.10;;;13.43;;
75441;SDS011;64019;48.312;14.226;2024-01-30T00:11:59;29.97;;;11.83;;
75441;SDS011;64019;48.312;14.226;2024-01-30T00:14:25;30.07;;;14.30;;
75441;SDS011;64019;48.312;14.226;2024-01-30T00:16:50;28.23;;;12.43;;
75441;SDS011;64019;48.312;14.226;2024-01-30T00:19:16;34.30;;;14.13;;
75441;SDS011;64019;48.312;14.226;2024-01-30T00:21:42;32.57;;;14.73;;
75441;SDS011;64019;48.312;14.226;2024-01-30T00:24:08;26.57;;;12.97;;
75441;SDS011;64019;48.312;14.226;2024-01-30T00:26:34;30.93;;;13.10;;
75441;SDS011;64019;48.312;14.226;2024-01-30T00:29:00;24.07;;;13.03;;
75441;SDS011;64019;48.312;14.226;2024-01-30T00:31:25;28.73;;;13.70;;
75441;SDS011;64019;48.312;14.226;2024-01-30T00:33:51;34.03;;;14.87;;
75441;SDS011;64019;48.312;14.226;2024-01-30T00:36:17;32.60;;;13.90;;
75441;SDS011;64019;48.312;14.226;2024-01-30T00:38:42;40.93;;;13.73;;
75441;SDS011;64019;48.312;14.226;2024-01-30T00:41:08;29.00;;;14.20;;
75441;SDS011;64019;48.312;14.226;2024-01-30T00:43:34;29.37;;;13.97;;
75441;SDS011;64019;48.312;14.226;2024-01-30T00:46:00;31.33;;;15.23;;
75441;SDS011;64019;48.312;14.226;2024-01-30T00:48:26;34.50;;;15.00;;
75441;SDS011;64019;48.312;14.226;2024-01-30T00:50:52;37.30;;;15.50;;
75441;SDS011;64019;48.312;14.226;2024-01-30T00:53:17;36.67;;;16.47;;
75441;SDS011;64019;48.312;14.226;2024-01-30T00:55:43;37.83;;;16.03;;
75441;SDS011;64019;48.312;14.226;2024-01-30T00:58:09;37.17;;;17.57;;
75441;SDS011;64019;48.312;14.226;2024-01-30T01:00:34;34.47;;;17.93;;
75441;SDS011;64019;48.312;14.226;2024-01-30T01:03:00;40.97;;;18.23;;
75441;SDS011;64019;48.312;14.226;2024-01-30T01:05:26;41.20;;;18.23;;
75441;SDS011;64019;48.312;14.226;2024-01-30T01:07:52;35.87;;;16.77;;
75441;SDS011;64019;48.312;14.226;2024-01-30T01:10:18;33.50;;;16.60;;
75441;SDS011;64019;48.312;14.226;2024-01-30T01:12:44;41.37;;;17.57;;
75441;SDS011;64019;48.312;14.226;2024-01-30T01:15:10;43.37;;;18.83;;
75441;SDS011;64019;48.312;14.226;2024-01-30T01:17:36;33.50;;;17.00;;
75441;SDS011;64019;48.312;14.226;2024-01-30T01:20:03;41.57;;;18.03;;
75441;SDS011;64019;48.312;14.226;2024-01-30T01:22:30;39.90;;;17.97;;
75441;SDS011;64019;48.312;14.226;2024-01-30T01:24:56;39.40;;;17.43;;
75441;SDS011;64019;48.312;14.226;2024-01-30T01:27:22;39.60;;;19.03;;
75441;SDS011;64019;48.312;14.226;2024-01-30T01:29:47;34.23;;;15.70;;
75441;SDS011;64019;48.312;14.226;2024-01-30T01:32:13;33.63;;;15.17;;
75441;SDS011;64019;48.312;14.226;2024-01-30T01:34:39;37.87;;;14.70;;
75441;SDS011;64019;48.312;14.226;2024-01-30T01:37:04;35.50;;;16.43;;
75441;SDS011;64019;48.312;14.226;2024-01-30T01:39:30;27.17;;;14.07;;
75441;SDS011;64019;48.312;14.226;2024-01-30T01:41:56;32.20;;;15.90;;
75441;SDS011;64019;48.312;14.226;2024-01-30T01:44:22;32.20;;;14.33;;
75441;SDS011;64019;48.312;14.226;2024-01-30T01:46:47;31.27;;;12.97;;
75441;SDS011;64019;48.312;14.226;2024-01-30T01:49:13;31.67;;;12.40;;
75441;SDS011;64019;48.312;14.226;2024-01-30T01:51:39;32.50;;;13.80;;
75441;SDS011;64019;48.312;14.226;2024-01-30T01:54:07;37.97;;;14.90;;
75441;SDS011;64019;48.312;14.226;2024-01-30T01:56:33;24.07;;;12.63;;
75441;SDS011;64019;48.312;14.226;2024-01-30T01:59:00;28.43;;;13.03;;
75441;SDS011;64019;48.312;14.226;2024-01-30T02:01:37;33.60;;;13.37;;
75441;SDS011;64019;48.312;14.226;2024-01-30T02:04:06;36.97;;;16.30;;
75441;SDS011;64019;48.312;14.226;2024-01-30T02:06:32;40.33;;;17.37;;
75441;SDS011;64019;48.312;14.226;2024-01-30T02:08:59;38.50;;;16.43;;
75441;SDS011;64019;48.312;14.226;2024-01-30T02:11:25;34.20;;;16.70;;
75441;SDS011;64019;48.312;14.226;2024-01-30T02:13:51;31.50;;;14.00;;
75441;SDS011;64019;48.312;14.226;2024-01-30T02:16:17;38.13;;;16.27;;
75441;SDS011;64019;48.312;14.226;2024-01-30T02:18:43;34.43;;;18.17;;
75441;SDS011;64019;48.312;14.226;2024-01-30T02:21:12;39.57;;;17.93;;
75441;SDS011;64019;48.312;14.226;2024-01-30T02:23:39;45.17;;;17.83;;
75441;SDS011;64019;48.312;14.226;2024-01-30T02:26:06;46.23;;;19.43;;
75441;SDS011;64019;48.312;14.226;2024-01-30T02:28:31;40.83;;;17.63;;
75441;SDS011;64019;48.312;14.226;2024-01-30T02:30:57;43.03;;;18.53;;
75441;SDS011;64019;48.312;14.226;2024-01-30T02:33:23;42.27;;;19.77;;
75441;SDS011;64019;48.312;14.226;2024-01-30T02:35:48;44.50;;;18.73;;
75441;SDS011;64019;48.312;14.226;2024-01-30T02:38:15;42.37;;;18.10;;
75441;SDS011;64019;48.312;14.226;2024-01-30T02:40:41;43.07;;;17.70;;
75441;SDS011;64019;48.312;14.226;2024-01-30T02:43:07;32.17;;;15.47;;
75441;SDS011;64019;48.312;14.226;2024-01-30T02:45:33;32.63;;;15.57;;
75441;SDS011;64019;48.312;14.226;2024-01-30T02:47:58;40.17;;;14.93;;
75441;SDS011;64019;48.312;14.226;2024-01-30T02:50:24;38.30;;;15.73;;
75441;SDS011;64019;48.312;14.226;2024-01-30T02:52:50;31.57;;;16.77;;
75441;SDS011;64019;48.312;14.226;2024-01-30T02:55:15;32.73;;;15.40;;
75441;SDS011;64019;48.312;14.226;2024-01-30T02:57:44;32.13;;;14.53;;
75441;SDS011;64019;48.312;14.226;2024-01-30T03:00:10;33.73;;;14.43;;
75441;SDS011;64019;48.312;14.226;2024-01-30T03:02:36;26.87;;;12.70;;
75441;SDS011;64019;48.312;14.226;2024-01-30T03:05:02;32.33;;;12.77;;
75441;SDS011;64019;48.312;14.226;2024-01-30T03:07:29;28.83;;;13.13;;
75441;SDS011;64019;48.312;14.226;2024-01-30T03:09:54;26.97;;;13.67;;
75441;SDS011;64019;48.312;14.226;2024-01-30T03:12:21;34.33;;;14.33;;
75441;SDS011;64019;48.312;14.226;2024-01-30T03:14:47;33.13;;;15.70;;
75441;SDS011;64019;48.312;14.226;2024-01-30T03:17:12;42.83;;;15.77;;
75441;SDS011;64019;48.312;14.226;2024-01-30T03:19:38;36.80;;;16.80;;
75441;SDS011;64019;48.312;14.226;2024-01-30T03:22:04;31.30;;;13.73;;
75441;SDS011;64019;48.312;14.226;2024-01-30T03:24:30;33.30;;;16.07;;
75441;SDS011;64019;48.312;14.226;2024-01-30T03:26:55;39.03;;;15.90;;
75441;SDS011;64019;48.312;14.226;2024-01-30T03:29:21;37.03;;;15.03;;
75441;SDS011;64019;48.312;14.226;2024-01-30T03:31:47;32.03;;;14.37;;
75441;SDS011;64019;48.312;14.226;2024-01-30T03:34:12;30.90;;;14.33;;
75441;SDS011;64019;48.312;14.226;2024-01-30T03:36:38;31.37;;;14.10;;
75441;SDS011;64019;48.312;14.226;2024-01-30T03:39:04;32.00;;;14.20;;
75441;SDS011;64019;48.312;14.226;2024-01-30T03:41:29;28.17;;;11.77;;
75441;SDS011;64019;48.312;14.226;2024-01-30T03:43:55;33.80;;;14.20;;
75441;SDS011;64019;48.312;14.226;2024-01-30T03:46:21;29.27;;;13.20;;
75441;SDS011;64019;48.312;14.226;2024-01-30T03:48:46;30.90;;;12.80;;
75441;SDS011;64019;48.312;14.226;2024-01-30T03:51:12;27.13;;;13.13;;
75441;SDS011;64019;48.312;14.226;2024-01-30T03:53:40;35.60;;;12.87;;
75441;SDS011;64019;48.312;14.226;2024-01-30T03:56:06;28.33;;;13.03;;
75441;SDS011;64019;48.312;14.226;2024-01-30T03:58:32;29.90;;;13.80;;
75441;SDS011;64019;48.312;14.226;2024-01-30T04:00:58;33.80;;;14.70;;
75441;SDS011;64019;48.312;14.226;2024-01-30T04:03:24;29.93;;;13.60;;
75441;SDS011;64019;48.312;14.226;2024-01-30T04:05:51;29.00;;;12.83;;
75441;SDS011;64019;48.312;14.226;2024-01-30T04:08:17;27.73;;;12.27;;
75441;SDS011;64019;48.312;14.226;2024-01-30T04:10:42;26.60;;;12.03;;
75441;SDS011;64019;48.312;14.226;2024-01-30T04:13:08;35.57;;;13.67;;
75441;SDS011;64019;48.312;14.226;2024-01-30T04:15:34;26.80;;;12.53;;
75441;SDS011;64019;48.312;14.226;2024-01-30T04:18:00;30.50;;;14.33;;
75441;SDS011;64019;48.312;14.226;2024-01-30T04:20:25;29.63;;;14.10;;
75441;SDS011;64019;48.312;14.226;2024-01-30T04:22:51;30.47;;;14.73;;
75441;SDS011;64019;48.312;14.226;2024-01-30T04:25:17;28.93;;;13.17;;
75441;SDS011;64019;48.312;14.226;2024-01-30T04:27:42;36.97;;;12.90;;
75441;SDS011;64019;48.312;14.226;2024-01-30T04:30:08;25.60;;;13.37;;
75441;SDS011;64019;48.312;14.226;2024-01-30T04:32:35;33.47;;;13.47;;
75441;SDS011;64019;48.312;14.226;2024-01-30T04:35:01;28.80;;;13.87;;
75441;SDS011;64019;48.312;14.226;2024-01-30T04:37:26;26.00;;;12.57;;
75441;SDS011;64019;48.312;14.226;2024-01-30T04:39:52;26.00;;;12.60;;
75441;SDS011;64019;48.312;14.226;2024-01-30T04:42:18;30.00;;;12.13;;
75441;SDS011;64019;48.312;14.226;2024-01-30T04:44:44;28.23;;;12.77;;
75441;SDS011;64019;48.312;14.226;2024-01-30T04:47:10;32.10;;;13.63;;
75441;SDS011;64019;48.312;14.226;2024-01-30T04:49:38;32.03;;;12.23;;
75441;SDS011;64019;48.312;14.226;2024-01-30T04:52:05;32.50;;;12.33;;
75441;SDS011;64019;48.312;14.226;2024-01-30T04:54:31;24.80;;;11.30;;
75441;SDS011;64019;48.312;14.226;2024-01-30T04:56:57;26.53;;;11.90;;
75441;SDS011;64019;48.312;14.226;2024-01-30T04:59:23;28.50;;;13.60;;
75441;SDS011;64019;48.312;14.226;2024-01-30T05:01:49;27.33;;;12.10;;
75441;SDS011;64019;48.312;14.226;2024-01-30T05:04:14;30.40;;;12.50;;
75441;SDS011;64019;48.312;14.226;2024-01-30T05:06:40;27.37;;;13.07;;
75441;SDS011;64019;48.312;14.226;2024-01-30T05:09:06;27.40;;;11.60;;
75441;SDS011;64019;48.312;14.226;2024-01-30T05:11:36;25.93;;;12.33;;
75441;SDS011;64019;48.312;14.226;2024-01-30T05:14:03;23.27;;;11.73;;
75441;SDS011;64019;48.312;14.226;2024-01-30T05:16:29;24.73;;;12.67;;
75441;SDS011;64019;48.312;14.226;2024-01-30T05:18:54;27.77;;;13.27;;
75441;SDS011;64019;48.312;14.226;2024-01-30T05:21:20;26.80;;;12.27;;
75441;SDS011;64019;48.312;14.226;2024-01-30T05:23:46;31.97;;;11.17;;
75441;SDS011;64019;48.312;14.226;2024-01-30T05:26:11;24.50;;;11.03;;
75441;SDS011;64019;48.312;14.226;2024-01-30T06:27:05;25.63;;;12.40;;
75441;SDS011;64019;48.312;14.226;2024-01-30T06:29:31;24.27;;;12.30;;
75441;SDS011;64019;48.312;14.226;2024-01-30T06:31:57;35.07;;;14.20;;
75441;SDS011;64019;48.312;14.226;2024-01-30T06:34:22;40.33;;;14.77;;
75441;SDS011;64019;48.312;14.226;2024-01-30T06:36:48;25.70;;;13.10;;
75441;SDS011;64019;48.312;14.226;2024-01-30T06:39:14;38.70;;;14.47;;
75441;SDS011;64019;48.312;14.226;2024-01-30T06:41:39;29.27;;;14.60;;
75441;SDS011;64019;48.312;14.226;2024-01-30T06:44:05;30.80;;;14.07;;
75441;SDS011;64019;48.312;14.226;2024-01-30T06:46:33;32.60;;;14.47;;
75441;SDS011;64019;48.312;14.226;2024-01-30T06:48:59;31.93;;;14.80;;
75441;SDS011;64019;48.312;14.226;2024-01-30T06:51:24;33.67;;;14.37;;
75441;SDS011;64019;48.312;14.226;2024-01-30T06:53:50;31.67;;;14.00;;
75441;SDS011;64019;48.312;14.226;2024-01-30T06:56:16;37.43;;;15.70;;
75441;SDS011;64019;48.312;14.226;2024-01-30T06:58:46;39.07;;;15.63;;
75441;SDS011;64019;48.312;14.226;2024-01-30T07:01:12;33.93;;;15.50;;
75441;SDS011;64019;48.312;14.226;2024-01-30T07:03:38;44.10;;;16.90;;
75441;SDS011;64019;48.312;14.226;2024-01-30T07:06:03;33.20;;;15.67;;
75441;SDS011;64019;48.312;14.226;2024-01-30T07:08:29;39.30;;;15.57;;
75441;SDS011;64019;48.312;14.226;2024-01-30T07:10:55;30.83;;;15.30;;
75441;SDS011;64019;48.312;14.226;2024-01-30T07:13:21;28.07;;;14.80;;
75441;SDS011;64019;48.312;14.226;2024-01-30T07:15:46;33.03;;;15.10;;
75441;SDS011;64019;48.312;14.226;2024-01-30T07:18:12;26.73;;;13.73;;
75441;SDS011;64019;48.312;14.226;2024-01-30T07:20:38;31.73;;;14.37;;
75441;SDS011;64019;48.312;14.226;2024-01-30T07:23:14;29.07;;;13.60;;
75441;SDS011;64019;48.312;14.226;2024-01-30T07:25:42;27.67;;;14.23;;
75441;SDS011;64019;48.312;14.226;2024-01-30T07:28:13;28.77;;;14.53;;
75441;SDS011;64019;48.312;14.226;2024-01-30T07:30:41;27.07;;;13.70;;
75441;SDS011;64019;48.312;14.226;2024-01-30T07:33:07;39.17;;;16.13;;
75441;SDS011;64019;48.312;14.226;2024-01-30T07:35:34;34.20;;;14.90;;
75441;SDS011;64019;48.312;14.226;2024-01-30T07:37:59;38.13;;;16.60;;
75441;SDS011;64019;48.312;14.226;2024-01-30T07:40:25;38.77;;;17.70;;
75441;SDS011;64019;48.312;14.226;2024-01-30T07:42:52;35.23;;;16.40;;
75441;SDS011;64019;48.312;14.226;2024-01-30T07:45:19;28.60;;;14.70;;
75441;SDS011;64019;48.312;14.226;2024-01-30T07:47:49;31.17;;;12.97;;
75441;SDS011;64019;48.312;14.226;2024-01-30T07:50:15;30.77;;;14.37;;
75441;SDS011;64019;48.312;14.226;2024-01-30T07:52:41;28.80;;;13.73;;
75441;SDS011;64019;48.312;14.226;2024-01-30T07:55:10;36.83;;;13.83;;
75441;SDS011;64019;48.312;14.226;2024-01-30T07:57:35;29.87;;;14.47;;
75441;SDS011;64019;48.312;14.226;2024-01-30T08:00:04;32.93;;;14.13;;
75441;SDS011;64019;48.312;14.226;2024-01-30T08:02:32;39.13;;;15.07;;
75441;SDS011;64019;48.312;14.226;2024-01-30T08:04:57;28.40;;;14.10;;
75441;SDS011;64019;48.312;14.226;2024-01-30T08:07:23;31.80;;;14.50;;
75441;SDS011;64019;48.312;14.226;2024-01-30T08:09:49;33.73;;;15.03;;
75441;SDS011;64019;48.312;14.226;2024-01-30T08:12:15;38.80;;;16.20;;
75441;SDS011;64019;48.312;14.226;2024-01-30T08:14:41;30.40;;;14.40;;
75441;SDS011;64019;48.312;14.226;2024-01-30T08:17:07;38.00;;;16.10;;
75441;SDS011;64019;48.312;14.226;2024-01-30T08:19:32;37.83;;;15.97;;
75441;SDS011;64019;48.312;14.226;2024-01-30T08:21:58;42.83;;;16.47;;
75441;SDS011;64019;48.312;14.226;2024-01-30T08:24:24;40.33;;;16.57;;
75441;SDS011;64019;48.312;14.226;2024-01-30T08:26:50;36.77;;;15.97;;
75441;SDS011;64019;48.312;14.226;2024-01-30T08:29:15;38.90;;;17.20;;
75441;SDS011;64019;48.312;14.226;2024-01-30T08:31:41;41.17;;;16.33;;
75441;SDS011;64019;48.312;14.226;2024-01-30T08:34:06;42.07;;;17.17;;
75441;SDS011;64019;48.312;14.226;2024-01-30T08:36:32;36.37;;;16.03;;
75441;SDS011;64019;48.312;14.226;2024-01-30T08:38:58;45.20;;;16.27;;
75441;SDS011;64019;48.312;14.226;2024-01-30T08:41:23;38.37;;;15.47;;
75441;SDS011;64019;48.312;14.226;2024-01-30T08:43:49;45.30;;;17.90;;
75441;SDS011;64019;48.312;14.226;2024-01-30T08:46:18;40.87;;;16.73;;
75441;SDS011;64019;48.312;14.226;2024-01-30T08:48:44;46.53;;;17.13;;
75441;SDS011;64019;48.312;14.226;2024-01-30T08:51:10;40.33;;;16.57;;
75441;SDS011;64019;48.312;14.226;2024-01-30T08:53:36;51.37;;;18.20;;
75441;SDS011;64019;48.312;14.226;2024-01-30T08:56:02;47.67;;;16.47;;
75441;SDS011;64019;48.312;14.226;2024-01-30T08:58:28;58.57;;;20.13;;
75441;SDS011;64019;48.312;14.226;2024-01-30T09:00:54;57.13;;;21.40;;
75441;SDS011;64019;48.312;14.226;2024-01-30T09:03:19;58.33;;;20.93;;
75441;SDS011;64019;48.312;14.226;2024-01-30T09:05:45;69.30;;;21.20;;
75441;SDS011;64019;48.312;14.226;2024-01-30T09:08:11;65.60;;;25.17;;
75441;SDS011;64019;48.312;14.226;2024-01-30T09:10:36;73.73;;;25.47;;
75441;SDS011;64019;48.312;14.226;2024-01-30T09:13:02;68.47;;;24.73;;
75441;SDS011;64019;48.312;14.226;2024-01-30T09:15:28;56.03;;;22.87;;
75441;SDS011;64019;48.312;14.226;2024-01-30T09:17:54;68.43;;;24.33;;
75441;SDS011;64019;48.312;14.226;2024-01-30T09:20:19;64.67;;;22.20;;
75441;SDS011;64019;48.312;14.226;2024-01-30T09:22:47;59.87;;;22.63;;
75441;SDS011;64019;48.312;14.226;2024-01-30T09:25:13;54.13;;;22.23;;
75441;SDS011;64019;48.312;14.226;2024-01-30T09:27:38;60.10;;;22.10;;
75441;SDS011;64019;48.312;14.226;2024-01-30T09:30:05;59.13;;;22.07;;
75441;SDS011;64019;48.312;14.226;2024-01-30T09:32:31;69.93;;;23.00;;
75441;SDS011;64019;48.312;14.226;2024-01-30T09:34:57;55.53;;;21.50;;
75441;SDS011;64019;48.312;14.226;2024-01-30T09:37:22;67.30;;;23.97;;
75441;SDS011;64019;48.312;14.226;2024-01-30T09:39:48;67.67;;;24.00;;
75441;SDS011;64019;48.312;14.226;2024-01-30T09:42:27;68.37;;;22.73;;
75441;SDS011;64019;48.312;14.226;2024-01-30T09:44:56;68.37;;;24.80;;
75441;SDS011;64019;48.312;14.226;2024-01-30T09:47:22;71.17;;;25.70;;
75441;SDS011;64019;48.312;14.226;2024-01-30T09:49:48;58.00;;;23.73;;
75441;SDS011;64019;48.312;14.226;2024-01-30T09:52:15;55.60;;;21.53;;
75441;SDS011;64019;48.312;14.226;2024-01-30T09:54:41;59.83;;;23.40;;
75441;SDS011;64019;48.312;14.226;2024-01-30T09:57:08;71.47;;;24.73;;
75441;SDS011;64019;48.312;14.226;2024-01-30T09:59:34;66.80;;;24.13;;
75441;SDS011;64019;48.312;14.226;2024-01-30T10:02:00;62.77;;;22.27;;
75441;SDS011;64019;48.312;14.226;2024-01-30T10:04:26;50.83;;;22.77;;
75441;SDS011;64019;48.312;14.226;2024-01-30T10:06:51;69.67;;;23.60;;
75441;SDS011;64019;48.312;14.226;2024-01-30T10:09:17;61.10;;;24.67;;
75441;SDS011;64019;48.312;14.226;2024-01-30T10:11:42;70.80;;;23.03;;
75441;SDS011;64019;48.312;14.226;2024-01-30T10:14:08;61.47;;;23.47;;
75441;SDS011;64019;48.312;14.226;2024-01-30T10:16:34;61.10;;;25.13;;
75441;SDS011;64019;48.312;14.226;2024-01-30T10:19:00;77.73;;;25.53;;
75441;SDS011;64019;48.312;14.226;2024-01-30T10:21:26;79.47;;;26.13;;
75441;SDS011;64019;48.312;14.226;2024-01-30T10:23:52;69.23;;;26.07;;
75441;SDS011;64019;48.312;14.226;2024-01-30T10:26:18;72.27;;;25.50;;
75441;SDS011;64019;48.312;14.226;2024-01-30T10:28:44;85.13;;;29.13;;
75441;SDS011;64019;48.312;14.226;2024-01-30T10:31:09;84.37;;;28.83;;
75441;SDS011;64019;48.312;14.226;2024-01-30T10:33:35;91.03;;;29.40;;
75441;SDS011;64019;48.312;14.226;2024-01-30T10:36:01;78.47;;;29.33;;
75441;SDS011;64019;48.312;14.226;2024-01-30T10:38:28;92.17;;;29.67;;
75441;SDS011;64019;48.312;14.226;2024-01-30T10:41:01;88.80;;;29.37;;
75441;SDS011;64019;48.312;14.226;2024-01-30T10:43:31;79.13;;;29.27;;
75441;SDS011;64019;48.312;14.226;2024-01-30T10:46:21;91.50;;;30.07;;
75441;SDS011;64019;48.312;14.226;2024-01-30T10:48:51;85.77;;;28.90;;
75441;SDS011;64019;48.312;14.226;2024-01-30T10:51:23;90.67;;;30.63;;
75441;SDS011;64019;48.312;14.226;2024-01-30T10:53:52;92.87;;;31.20;;
75441;SDS011;64019;48.312;14.226;2024-01-30T10:56:22;87.73;;;30.83;;
75441;SDS011;64019;48.312;14.226;2024-01-30T10:58:49;111.40;;;31.77;;
75441;SDS011;64019;48.312;14.226;2024-01-30T11:01:17;98.90;;;33.77;;
75441;SDS011;64019;48.312;14.226;2024-01-30T11:03:53;95.03;;;30.80;;
75441;SDS011;64019;48.312;14.226;2024-01-30T11:06:22;98.70;;;30.50;;
75441;SDS011;64019;48.312;14.226;2024-01-30T11:09:04;87.67;;;30.33;;
75441;SDS011;64019;48.312;14.226;2024-01-30T11:11:50;89.50;;;30.30;;
75441;SDS011;64019;48.312;14.226;2024-01-30T11:14:22;98.40;;;30.80;;
75441;SDS011;64019;48.312;14.226;2024-01-30T11:16:51;93.03;;;32.20;;
75441;SDS011;64019;48.312;14.226;2024-01-30T11:19:23;114.13;;;34.73;;
75441;SDS011;64019;48.312;14.226;2024-01-30T11:21:50;109.73;;;33.40;;
75441;SDS011;64019;48.312;14.226;2024-01-30T11:24:22;95.23;;;31.37;;
75441;SDS011;64019;48.312;14.226;2024-01-30T11:26:57;96.60;;;31.87;;
75441;SDS011;64019;48.312;14.226;2024-01-30T11:29:24;112.10;;;33.13;;
75441;SDS011;64019;48.312;14.226;2024-01-30T11:31:57;82.67;;;31.97;;
75441;SDS011;64019;48.312;14.226;2024-01-30T11:34:23;87.53;;;33.00;;
75441;SDS011;64019;48.312;14.226;2024-01-30T11:36:53;87.53;;;29.93;;
75441;SDS011;64019;48.312;14.226;2024-01-30T11:39:26;90.13;;;30.60;;
75441;SDS011;64019;48.312;14.226;2024-01-30T11:41:54;86.63;;;30.50;;
75441;SDS011;64019;48.312;14.226;2024-01-30T11:44:20;94.53;;;31.97;;
75441;SDS011;64019;48.312;14.226;2024-01-30T11:46:47;104.30;;;33.47;;
75441;SDS011;64019;48.312;14.226;2024-01-30T11:49:14;98.30;;;33.27;;
75441;SDS011;64019;48.312;14.226;2024-01-30T11:51:40;98.00;;;33.93;;
75441;SDS011;64019;48.312;14.226;2024-01-30T11:54:07;89.93;;;32.60;;
75441;SDS011;64019;48.312;14.226;2024-01-30T11:56:33;85.80;;;31.43;;
75441;SDS011;64019;48.312;14.226;2024-01-30T12:40:17;107.33;;;32.20;;
75441;SDS011;64019;48.312;14.226;2024-01-30T12:42:45;112.03;;;33.43;;
75441;SDS011;64019;48.312;14.226;2024-01-30T12:45:13;118.87;;;35.20;;
75441;SDS011;64019;48.312;14.226;2024-01-30T12:47:40;130.67;;;34.93;;
75441;SDS011;64019;48.312;14.226;2024-01-30T12:50:06;112.10;;;36.33;;
75441;SDS011;64019;48.312;14.226;2024-01-30T12:52:32;114.53;;;35.67;;
75441;SDS011;64019;48.312;14.226;2024-01-30T12:54:58;113.70;;;36.27;;
75441;SDS011;64019;48.312;14.226;2024-01-30T12:57:23;110.53;;;36.57;;
75441;SDS011;64019;48.312;14.226;2024-01-30T12:59:49;96.00;;;32.83;;
75441;SDS011;64019;48.312;14.226;2024-01-30T13:02:15;125.80;;;34.93;;
75441;SDS011;64019;48.312;14.226;2024-01-30T13:04:41;118.07;;;34.93;;
75441;SDS011;64019;48.312;14.226;2024-01-30T13:07:07;100.03;;;32.60;;
75441;SDS011;64019;48.312;14.226;2024-01-30T13:09:32;107.17;;;35.63;;
75441;SDS011;64019;48.312;14.226;2024-01-30T13:11:58;92.33;;;32.40;;
75441;SDS011;64019;48.312;14.226;2024-01-30T13:14:25;97.70;;;32.23;;
75441;SDS011;64019;48.312;14.226;2024-01-30T13:16:51;107.50;;;34.83;;
75441;SDS011;64019;48.312;14.226;2024-01-30T13:19:17;95.37;;;32.10;;
75441;SDS011;64019;48.312;14.226;2024-01-30T13:21:43;93.23;;;34.00;;
75441;SDS011;64019;48.312;14.226;2024-01-30T13:24:08;103.73;;;33.77;;
75441;SDS011;64019;48.312;14.226;2024-01-30T13:26:34;104.77;;;35.03;;
75441;SDS011;64019;48.312;14.226;2024-01-30T13:29:00;98.87;;;33.10;;
75441;SDS011;64019;48.312;14.226;2024-01-30T13:31:26;100.27;;;33.10;;
75441;SDS011;64019;48.312;14.226;2024-01-30T13:33:52;96.67;;;29.93;;
75441;SDS011;64019;48.312;14.226;2024-01-30T13:36:18;103.33;;;32.87;;
75441;SDS011;64019;48.312;14.226;2024-01-30T13:38:44;102.20;;;34.23;;
75441;SDS011;64019;48.312;14.226;2024-01-30T13:41:10;97.00;;;31.90;;
75441;SDS011;64019;48.312;14.226;2024-01-30T13:43:35;109.30;;;33.57;;
75441;SDS011;64019;48.312;14.226;2024-01-30T13:46:01;107.07;;;33.70;;
75441;SDS011;64019;48.312;14.226;2024-01-30T13:48:27;104.77;;;33.63;;
75441;SDS011;64019;48.312;14.226;2024-01-30T13:50:53;97.57;;;33.13;;
75441;SDS011;64019;48.312;14.226;2024-01-30T13:53:19;104.80;;;33.73;;
75441;SDS011;64019;48.312;14.226;2024-01-30T13:55:44;108.13;;;36.43;;
75441;SDS011;64019;48.312;14.226;2024-01-30T13:58:10;96.57;;;34.37;;
75441;SDS011;64019;48.312;14.226;2024-01-30T14:00:36;108.90;;;36.40;;
75441;SDS011;64019;48.312;14.226;2024-01-30T14:03:01;100.40;;;33.80;;
75441;SDS011;64019;48.312;14.226;2024-01-30T14:05:28;106.93;;;34.57;;
75441;SDS011;64019;48.312;14.226;2024-01-30T14:07:54;119.00;;;35.47;;
75441;SDS011;64019;48.312;14.226;2024-01-30T14:10:20;100.03;;;35.57;;
75441;SDS011;64019;48.312;14.226;2024-01-30T14:12:45;99.50;;;30.80;;
75441;SDS011;64019;48.312;14.226;2024-01-30T14:15:13;113.60;;;34.80;;
75441;SDS011;64019;48.312;14.226;2024-01-30T14:17:40;113.87;;;35.93;;
75441;SDS011;64019;48.312;14.226;2024-01-30T14:20:06;102.00;;;33.37;;
75441;SDS011;64019;48.312;14.226;2024-01-30T14:22:33;98.60;;;32.80;;
75441;SDS011;64019;48.312;14.226;2024-01-30T15:05:32;92.27;;;30.63;;
75441;SDS011;64019;48.312;14.226;2024-01-30T15:08:02;107.07;;;33.10;;
75441;SDS011;64019;48.312;14.226;2024-01-30T15:15:06;99.33;;;31.10;;
75441;SDS011;64019;48.312;14.226;2024-01-30T15:17:33;91.03;;;32.77;;
75441;SDS011;64019;48.312;14.226;2024-01-30T15:19:58;88.20;;;30.27;;
75441;SDS011;64019;48.312;14.226;2024-01-30T15:31:58;96.03;;;31.87;;
75441;SDS011;64019;48.312;14.226;2024-01-30T15:34:24;89.60;;;29.80;;
75441;SDS011;64019;48.312;14.226;2024-01-30T15:36:49;88.47;;;30.57;;
75441;SDS011;64019;48.312;14.226;2024-01-30T15:39:15;95.63;;;29.70;;
75441;SDS011;64019;48.312;14.226;2024-01-30T15:41:42;90.63;;;30.73;;
75441;SDS011;64019;48.312;14.226;2024-01-30T15:50:58;94.00;;;31.60;;
75441;SDS011;64019;48.312;14.226;2024-01-30T15:54:23;98.10;;;32.83;;
75441;SDS011;64019;48.312;14.226;2024-01-30T15:57:31;99.80;;;31.17;;
75441;SDS011;64019;48.312;14.226;2024-01-30T16:00:36;102.77;;;31.27;;
75441;SDS011;64019;48.312;14.226;2024-01-30T16:03:17;94.30;;;31.87;;
75441;SDS011;64019;48.312;14.226;2024-01-30T16:06:09;113.17;;;32.47;;
75441;SDS011;64019;48.312;14.226;2024-01-30T16:08:55;104.13;;;31.93;;
75441;SDS011;64019;48.312;14.226;2024-01-30T16:11:43;106.37;;;31.33;;
75441;SDS011;64019;48.312;14.226;2024-01-30T16:14:18;93.63;;;30.87;;
75441;SDS011;64019;48.312;14.226;2024-01-30T16:16:55;106.87;;;31.43;;
75441;SDS011;64019;48.312;14.226;2024-01-30T16:19:20;89.57;;;29.23;;
75441;SDS011;64019;48.312;14.226;2024-01-30T16:21:46;100.47;;;30.63;;
75441;SDS011;64019;48.312;14.226;2024-01-30T16:24:12;98.90;;;30.63;;
75441;SDS011;64019;48.312;14.226;2024-01-30T16:26:38;99.47;;;30.40;;
75441;SDS011;64019;48.312;14.226;2024-01-30T16:29:04;94.30;;;30.50;;
75441;SDS011;64019;48.312;14.226;2024-01-30T16:31:31;105.77;;;31.00;;
75441;SDS011;64019;48.312;14.226;2024-01-30T16:33:56;92.57;;;32.33;;
75441;SDS011;64019;48.312;14.226;2024-01-30T16:36:24;98.40;;;32.13;;
75441;SDS011;64019;48.312;14.226;2024-01-30T16:38:50;101.53;;;32.50;;
75441;SDS011;64019;48.312;14.226;2024-01-30T16:41:16;117.87;;;33.13;;
75441;SDS011;64019;48.312;14.226;2024-01-30T16:43:42;104.70;;;32.93;;
75441;SDS011;64019;48.312;14.226;2024-01-30T16:46:08;108.47;;;29.93;;
75441;SDS011;64019;48.312;14.226;2024-01-30T16:48:34;100.47;;;30.50;;